Time;durP1;ratioP1;P1;durP2;ratioP2;P2;SDS_P1;SDS_P2;PMS_P1;PMS_P2;Temp;Humidity;BMP_temperature;BMP_pressure;BME280_temperature;BME280_humidity;BME280_pressure;Samples;Min_cycle;Max_cycle;Signal;HPM_P1;HPM_P2
2023/03/11 00:01:05;;;;;;;;;;;;;;;14.15;44.09;98017.34;4922180;28;98360;-72
2023/03/11 00:03:31;;;;;;;;;;;;;;;14.14;44.61;98015.75;4912780;28;98279;-68
2023/03/11 00:06:00;;;;;;;;;;;;;;;14.11;44.15;98045.47;4907269;28;98251;-71
2023/03/11 00:08:27;;;;;;;;;;;;;;;14.07;44.58;98041.88;4917969;28;98182;-69
2023/03/11 00:10:54;;;;;;;;;;;;;;;14.04;44.47;98039.91;4919718;28;98427;-71
2023/03/11 00:13:21;;;;;;;;;;;;;;;14.01;44.25;98046.78;4904750;28;98088;-69
2023/03/11 00:15:49;;;;;;;;;;;;;;;13.96;44.28;98050.53;4925963;28;98211;-71
2023/03/11 00:18:15;;;;;;;;;;;;;;;13.93;44.58;98053.16;4908074;28;98152;-71
2023/03/11 00:20:43;;;;;;;;;;;;;;;13.90;44.63;98051.13;4909199;28;100427;-68
2023/03/11 00:23:10;;;;;;;;;;;;;;;13.85;44.45;98065.72;4907795;28;99377;-68
2023/03/11 00:25:36;;;;;;;;;;;;;;;13.81;44.40;98062.13;4905035;28;98068;-68
2023/03/11 00:28:04;;;;;;;;;;;;;;;13.78;44.29;98059.31;4910868;28;98286;-69
2023/03/11 00:30:30;;;;;;;;;;;;;;;13.73;44.43;98054.94;4923242;28;97958;-70
2023/03/11 00:32:57;;;;;;;;;;;;;;;13.69;44.48;98060.25;4922385;28;98977;-68
2023/03/11 00:35:25;;;;;;;;;;;;;;;13.67;44.27;98061.72;4932920;28;99331;-69
2023/03/11 00:37:56;;;;;;;;;;;;;;;13.63;44.38;98061.63;4909326;28;99006;-68
2023/03/11 00:40:23;;;;;;;;;;;;;;;13.60;44.27;98069.69;4905168;28;104916;-68
2023/03/11 00:42:49;;;;;;;;;;;;;;;13.58;44.57;98071.94;4918305;28;98979;-68
2023/03/11 00:45:16;;;;;;;;;;;;;;;13.53;44.29;98072.97;4923869;28;98207;-70
2023/03/11 00:47:42;;;;;;;;;;;;;;;13.51;44.45;98072.50;4922564;28;98882;-69
2023/03/11 00:50:11;;;;;;;;;;;;;;;13.47;44.39;98067.00;4907808;28;98065;-70
2023/03/11 00:52:37;;;;;;;;;;;;;;;13.45;44.31;98073.91;4917642;28;98234;-69
2023/03/11 00:55:04;;;;;;;;;;;;;;;13.41;44.29;98081.91;4921797;28;99543;-69
2023/03/11 00:57:30;;;;;;;;;;;;;;;13.38;44.21;98077.19;4904935;28;104886;-68
2023/03/11 00:59:58;;;;;;;;;;;;;;;13.35;44.61;98080.56;4906754;28;97756;-69
2023/03/11 01:02:24;;;;;;;;;;;;;;;13.32;44.61;98078.53;4918253;28;98119;-67
2023/03/11 01:04:57;;;;;;;;;;;;;;;13.28;44.71;98091.16;4906671;28;99182;-67
2023/03/11 01:07:23;;;;;;;;;;;;;;;13.25;44.45;98084.56;4919334;28;98179;-68
2023/03/11 01:09:49;;;;;;;;;;;;;;;13.21;44.46;98107.97;4931418;28;98201;-67
2023/03/11 01:12:15;;;;;;;;;;;;;;;13.19;44.45;98110.22;4922770;28;98114;-68
2023/03/11 01:14:41;;;;;;;;;;;;;;;13.14;44.51;98110.47;4908953;28;98390;-66
2023/03/11 01:17:07;;;;;;;;;;;;;;;13.11;44.66;98127.38;4900903;28;99808;-66
2023/03/11 01:19:34;;;;;;;;;;;;;;;13.09;44.29;98124.22;4906126;28;97979;-68
2023/03/11 01:22:00;;;;;;;;;;;;;;;13.06;44.35;98124.91;4900189;28;98214;-68
2023/03/11 01:24:29;;;;;;;;;;;;;;;13.05;44.32;98138.75;4908699;28;98280;-68
2023/03/11 01:26:55;;;;;;;;;;;;;;;12.99;44.54;98157.13;4907011;28;99860;-68
2023/03/11 01:29:21;;;;;;;;;;;;;;;12.97;44.46;98159.41;4906709;28;99636;-68
2023/03/11 01:31:47;;;;;;;;;;;;;;;12.95;44.36;98175.16;4904635;28;99522;-70
2023/03/11 01:34:14;;;;;;;;;;;;;;;12.91;44.61;98180.44;4922958;28;99230;-70
2023/03/11 01:36:40;;;;;;;;;;;;;;;12.89;44.37;98190.00;4934655;28;100014;-68
2023/03/11 01:39:06;;;;;;;;;;;;;;;12.86;44.57;98196.09;4906236;28;99694;-69
2023/03/11 01:41:33;;;;;;;;;;;;;;;12.84;44.36;98195.63;4904954;28;99405;-68
2023/03/11 01:43:59;;;;;;;;;;;;;;;12.81;44.36;98207.13;4907060;28;98115;-67
2023/03/11 01:46:27;;;;;;;;;;;;;;;12.78;44.51;98216.72;4908347;28;99252;-69
2023/03/11 01:48:54;;;;;;;;;;;;;;;12.76;44.59;98219.72;4921576;28;98409;-67
2023/03/11 01:51:24;;;;;;;;;;;;;;;12.73;44.50;98219.59;4902149;28;97908;-69
2023/03/11 01:53:50;;;;;;;;;;;;;;;12.72;44.55;98242.38;4948893;28;97876;-67
2023/03/11 01:56:16;;;;;;;;;;;;;;;12.70;44.59;98237.31;4939201;28;97955;-67
2023/03/11 01:58:44;;;;;;;;;;;;;;;12.68;44.33;98249.56;4920202;28;98478;-68
2023/03/11 02:01:10;;;;;;;;;;;;;;;12.65;44.34;98263.75;4918469;28;98228;-67
2023/03/11 02:03:38;;;;;;;;;;;;;;;12.63;44.55;98274.13;4914863;28;98046;-67
2023/03/11 02:06:11;;;;;;;;;;;;;;;12.63;44.38;98276.81;4906296;28;98002;-68
2023/03/11 02:08:38;;;;;;;;;;;;;;;12.59;44.41;98282.09;4919410;28;97870;-69
2023/03/11 02:11:05;;;;;;;;;;;;;;;12.58;44.41;98283.22;4939182;28;98208;-69
2023/03/11 02:13:33;;;;;;;;;;;;;;;12.56;44.39;98288.16;4907019;28;98293;-68
2023/03/11 02:15:59;;;;;;;;;;;;;;;12.55;44.33;98304.72;4898315;28;100280;-67
2023/03/11 02:18:25;;;;;;;;;;;;;;;12.53;44.78;98300.41;4903560;28;100008;-67
2023/03/11 02:21:08;;;;;;;;;;;;;;;12.52;44.24;98301.53;4909510;28;98379;-69
2023/03/11 02:24:17;;;;;;;;;;;;;;;12.51;44.34;98318.09;4931359;28;98106;-68
2023/03/11 02:27:15;;;;;;;;;;;;;;;12.49;44.47;98320.31;4914008;28;117522;-69
2023/03/11 02:29:41;;;;;;;;;;;;;;;12.47;44.27;98328.00;4908748;28;98355;-67
2023/03/11 02:32:08;;;;;;;;;;;;;;;12.45;44.70;98347.22;4923521;28;97910;-67
2023/03/11 02:34:35;;;;;;;;;;;;;;;12.43;44.48;98354.88;4930038;28;99564;-67
2023/03/11 02:37:05;;;;;;;;;;;;;;;12.42;44.28;98356.00;4924879;28;98689;-67
2023/03/11 02:39:32;;;;;;;;;;;;;;;12.40;44.54;98369.03;4926077;28;97986;-69
2023/03/11 02:41:58;;;;;;;;;;;;;;;12.39;44.46;98364.75;4924282;28;97991;-67
2023/03/11 02:44:24;;;;;;;;;;;;;;;12.38;44.39;98376.69;4930290;28;97946;-67
2023/03/11 02:46:50;;;;;;;;;;;;;;;12.37;44.41;98390.50;4928358;28;98376;-67
2023/03/11 02:49:16;;;;;;;;;;;;;;;12.36;44.25;98399.75;4909808;28;124011;-67
2023/03/11 02:51:42;;;;;;;;;;;;;;;12.33;44.36;98397.69;4922333;28;98155;-69
2023/03/11 02:54:08;;;;;;;;;;;;;;;12.32;44.50;98415.81;4934962;28;98185;-67
2023/03/11 02:56:34;;;;;;;;;;;;;;;12.30;44.33;98426.19;4912303;28;121935;-68
2023/03/11 02:59:00;;;;;;;;;;;;;;;12.30;44.47;98426.19;4914302;28;126706;-69
2023/03/11 03:01:27;;;;;;;;;;;;;;;12.27;44.34;98441.13;4928376;28;99006;-67
2023/03/11 03:03:53;;;;;;;;;;;;;;;12.27;44.26;98437.63;4924214;28;98261;-69
2023/03/11 03:06:20;;;;;;;;;;;;;;;12.25;44.55;98451.44;4920914;28;98412;-69
2023/03/11 03:08:46;;;;;;;;;;;;;;;12.24;44.38;98459.88;4922748;28;98141;-67
2023/03/11 03:11:13;;;;;;;;;;;;;;;12.23;44.45;98474.50;4910808;28;98455;-67
2023/03/11 03:13:39;;;;;;;;;;;;;;;12.20;44.29;98475.94;4924080;28;99346;-69
2023/03/11 03:16:05;;;;;;;;;;;;;;;12.20;44.29;98488.66;4909373;28;98025;-67
2023/03/11 03:18:31;;;;;;;;;;;;;;;12.19;44.40;98508.69;4922312;28;98089;-66
2023/03/11 03:20:57;;;;;;;;;;;;;;;12.16;44.20;98504.72;4927896;28;99635;-66
2023/03/11 03:23:24;;;;;;;;;;;;;;;12.14;44.20;98515.03;4911126;28;98238;-68
2023/03/11 03:25:50;;;;;;;;;;;;;;;12.15;44.48;98521.25;4909304;28;98295;-67
2023/03/11 03:28:16;;;;;;;;;;;;;;;12.14;44.33;98544.75;4924570;28;98078;-67
2023/03/11 03:30:43;;;;;;;;;;;;;;;12.13;44.23;98545.09;4933923;28;97922;-69
2023/03/11 03:33:08;;;;;;;;;;;;;;;12.10;44.24;98560.03;4904201;28;98317;-68
2023/03/11 03:35:35;;;;;;;;;;;;;;;12.09;44.29;98573.84;4917918;28;102925;-69
2023/03/11 03:38:01;;;;;;;;;;;;;;;12.09;44.41;98584.66;4919444;28;98329;-67
2023/03/11 03:40:27;;;;;;;;;;;;;;;12.06;44.34;98591.50;4904035;28;98026;-67
2023/03/11 03:42:53;;;;;;;;;;;;;;;12.05;44.34;98608.81;4907442;28;98161;-68
2023/03/11 03:45:19;;;;;;;;;;;;;;;12.02;44.28;98609.44;4937337;28;98120;-67
2023/03/11 03:47:45;;;;;;;;;;;;;;;12.01;44.34;98624.88;4919270;28;98186;-67
2023/03/11 03:50:12;;;;;;;;;;;;;;;12.00;44.40;98638.69;4933272;28;99567;-67
2023/03/11 03:52:39;;;;;;;;;;;;;;;11.98;44.36;98652.50;4922192;28;99269;-67
2023/03/11 03:55:05;;;;;;;;;;;;;;;11.96;44.17;98662.84;4916211;28;98462;-68
2023/03/11 03:57:32;;;;;;;;;;;;;;;11.94;44.33;98669.66;4900856;28;98345;-67
2023/03/11 03:59:58;;;;;;;;;;;;;;;11.94;44.38;98692.06;4910985;28;97966;-68
2023/03/11 04:02:24;;;;;;;;;;;;;;;11.93;44.28;98689.69;4904631;28;99364;-67
2023/03/11 04:04:50;;;;;;;;;;;;;;;11.91;44.38;98700.03;4903472;28;98207;-69
2023/03/11 04:07:16;;;;;;;;;;;;;;;11.91;44.28;98706.22;4939675;28;98398;-67
2023/03/11 04:09:42;;;;;;;;;;;;;;;11.89;44.30;98707.63;4919937;28;99450;-68
2023/03/11 04:12:16;;;;;;;;;;;;;;;11.88;44.35;98722.25;4937712;28;98302;-67
2023/03/11 04:14:43;;;;;;;;;;;;;;;11.87;44.36;98737.66;4905923;28;98194;-67
2023/03/11 04:17:11;;;;;;;;;;;;;;;11.87;44.06;98744.94;4920450;28;98362;-68
2023/03/11 04:19:37;;;;;;;;;;;;;;;11.84;44.39;98746.38;4906014;28;98733;-67
2023/03/11 04:22:03;;;;;;;;;;;;;;;11.84;44.32;98757.19;4919898;28;98212;-67
2023/03/11 04:24:29;;;;;;;;;;;;;;;11.84;44.29;98756.38;4906489;28;105515;-67
2023/03/11 04:26:56;;;;;;;;;;;;;;;11.83;44.36;98768.25;4920582;28;108238;-67
2023/03/11 04:29:22;;;;;;;;;;;;;;;11.81;44.21;98773.97;4929472;28;98171;-68
2023/03/11 04:31:48;;;;;;;;;;;;;;;11.81;44.28;98784.78;4911261;28;98245;-67
2023/03/11 04:34:14;;;;;;;;;;;;;;;11.79;44.28;98785.09;4907180;28;98021;-67
2023/03/11 04:36:41;;;;;;;;;;;;;;;11.78;44.33;98802.38;4926554;28;98401;-67
2023/03/11 04:39:07;;;;;;;;;;;;;;;11.77;44.34;98806.19;4921430;28;99376;-67
2023/03/11 04:41:33;;;;;;;;;;;;;;;11.78;44.21;98817.78;4903084;28;99542;-67
2023/03/11 04:43:59;;;;;;;;;;;;;;;11.76;44.31;98814.63;4921203;28;98334;-67
2023/03/11 04:46:26;;;;;;;;;;;;;;;11.75;44.37;98813.84;4907047;28;98124;-68
2023/03/11 04:48:52;;;;;;;;;;;;;;;11.74;44.17;98823.03;4921804;28;99675;-67
2023/03/11 04:51:18;;;;;;;;;;;;;;;11.73;44.50;98826.84;4904325;28;98208;-67
2023/03/11 04:53:44;;;;;;;;;;;;;;;11.72;44.32;98833.34;4907846;28;98027;-67
2023/03/11 04:56:10;;;;;;;;;;;;;;;11.71;44.32;98842.56;4932762;28;98095;-67
2023/03/11 04:58:36;;;;;;;;;;;;;;;11.71;44.13;98852.53;4902047;28;130240;-66
2023/03/11 05:01:02;;;;;;;;;;;;;;;11.68;44.36;98853.97;4931866;28;98534;-67
2023/03/11 05:03:28;;;;;;;;;;;;;;;11.68;44.20;98864.00;4916607;28;98030;-66
2023/03/11 05:05:59;;;;;;;;;;;;;;;11.67;44.28;98871.28;4914290;28;98409;-67
2023/03/11 05:08:25;;;;;;;;;;;;;;;11.67;44.23;98881.25;4932710;28;98114;-67
2023/03/11 05:10:54;;;;;;;;;;;;;;;11.64;44.24;98880.00;4921774;28;98111;-67
2023/03/11 05:13:20;;;;;;;;;;;;;;;11.63;44.25;98889.22;4907160;28;99479;-67
2023/03/11 05:15:47;;;;;;;;;;;;;;;11.63;44.31;98897.31;4920527;28;98850;-66
2023/03/11 05:18:14;;;;;;;;;;;;;;;11.62;44.25;98911.09;4905047;28;98602;-66
2023/03/11 05:20:40;;;;;;;;;;;;;;;11.61;44.26;98913.00;4906381;28;97927;-67
2023/03/11 05:23:06;;;;;;;;;;;;;;;11.61;44.28;98923.00;4918832;28;99541;-66
2023/03/11 05:25:34;;;;;;;;;;;;;;;11.60;44.25;98924.13;4902764;28;98139;-66
2023/03/11 05:28:00;;;;;;;;;;;;;;;11.59;44.51;98930.59;4907456;28;98107;-66
2023/03/11 05:30:26;;;;;;;;;;;;;;;11.57;44.36;98947.13;4908214;28;98463;-67
2023/03/11 05:32:53;;;;;;;;;;;;;;;11.56;44.26;98959.03;4902544;28;99541;-66
2023/03/11 05:35:19;;;;;;;;;;;;;;;11.55;44.45;98965.50;4935087;28;97875;-66
2023/03/11 05:37:48;;;;;;;;;;;;;;;11.55;44.47;98962.81;4918987;28;97912;-67
2023/03/11 05:40:14;;;;;;;;;;;;;;;11.54;44.31;98969.31;4919126;28;99045;-67
2023/03/11 05:42:40;;;;;;;;;;;;;;;11.53;44.29;98976.63;4904039;28;99854;-67
2023/03/11 05:45:07;;;;;;;;;;;;;;;11.53;44.31;98987.41;4918728;28;99375;-67
2023/03/11 05:47:33;;;;;;;;;;;;;;;11.53;44.13;98989.31;4917600;28;106921;-67
2023/03/11 05:50:00;;;;;;;;;;;;;;;11.52;44.21;99006.63;4915264;28;98487;-67
2023/03/11 05:52:26;;;;;;;;;;;;;;;11.52;44.29;99015.53;4908108;28;98768;-67
2023/03/11 05:54:52;;;;;;;;;;;;;;;11.51;44.20;99019.34;4906454;28;99766;-67
2023/03/11 05:57:18;;;;;;;;;;;;;;;11.50;44.22;99017.72;4908603;28;98006;-67
2023/03/11 05:59:45;;;;;;;;;;;;;;;11.50;44.29;99033.91;4909129;28;98151;-67
2023/03/11 06:02:11;;;;;;;;;;;;;;;11.51;44.22;99040.91;4917056;28;98618;-67
2023/03/11 06:04:37;;;;;;;;;;;;;;;11.52;44.34;99039.00;4903931;28;100305;-67
2023/03/11 06:07:03;;;;;;;;;;;;;;;11.52;44.09;99055.22;4904575;28;99202;-67
2023/03/11 06:09:30;;;;;;;;;;;;;;;11.52;44.17;99064.09;4919616;28;98084;-67
2023/03/11 06:11:56;;;;;;;;;;;;;;;11.54;44.45;99075.38;4921197;28;100129;-67
2023/03/11 06:14:22;;;;;;;;;;;;;;;11.55;44.11;99073.47;4923131;28;98289;-67
2023/03/11 06:16:48;;;;;;;;;;;;;;;11.56;44.36;99080.47;4900356;28;97952;-66
2023/03/11 06:19:14;;;;;;;;;;;;;;;11.57;43.99;99082.06;4903135;28;98227;-66
2023/03/11 06:21:40;;;;;;;;;;;;;;;11.57;44.12;99087.47;4901260;28;126412;-67
2023/03/11 06:24:07;;;;;;;;;;;;;;;11.58;44.10;99094.44;4904950;28;99350;-67
2023/03/11 06:26:33;;;;;;;;;;;;;;;11.58;44.08;99101.75;4952937;28;99643;-66
2023/03/11 06:28:59;;;;;;;;;;;;;;;11.56;44.03;99112.84;4915356;28;98223;-67
2023/03/11 06:31:27;;;;;;;;;;;;;;;11.55;44.52;99116.63;4907916;28;99440;-67
2023/03/11 06:33:54;;;;;;;;;;;;;;;11.55;43.95;99133.66;4915861;28;100010;-67
2023/03/11 06:36:21;;;;;;;;;;;;;;;11.56;44.06;99150.63;4919249;28;99453;-67
2023/03/11 06:38:48;;;;;;;;;;;;;;;11.56;44.06;99156.03;4916583;28;98368;-67
2023/03/11 06:41:14;;;;;;;;;;;;;;;11.55;43.82;99157.13;4930089;28;98566;-67
2023/03/11 06:43:40;;;;;;;;;;;;;;;11.58;43.96;99166.50;4901430;28;98048;-67
2023/03/11 06:46:10;;;;;;;;;;;;;;;11.58;44.03;99169.22;4914785;28;98746;-67
2023/03/11 06:48:37;;;;;;;;;;;;;;;11.58;43.85;99186.19;4917474;28;98935;-68
2023/03/11 06:51:03;;;;;;;;;;;;;;;11.57;44.26;99195.41;4908145;28;99114;-67
2023/03/11 06:53:29;;;;;;;;;;;;;;;11.57;44.12;99195.41;4903708;28;98517;-67
2023/03/11 06:56:06;;;;;;;;;;;;;;;11.58;44.03;99207.78;4913618;28;98251;-67
2023/03/11 06:58:33;;;;;;;;;;;;;;;11.58;44.12;99209.69;4915854;28;98733;-67
2023/03/11 07:01:03;;;;;;;;;;;;;;;11.57;44.08;99221.59;4931647;28;98301;-67
2023/03/11 07:03:29;;;;;;;;;;;;;;;11.58;44.35;99215.88;4901834;28;98718;-67
2023/03/11 07:05:56;;;;;;;;;;;;;;;11.59;44.35;99236.38;4902265;28;98115;-67
2023/03/11 07:08:22;;;;;;;;;;;;;;;11.59;44.17;99238.28;4926652;28;98448;-67
2023/03/11 07:11:19;;;;;;;;;;;;;;;11.60;43.97;99242.59;4903887;28;99606;-67
2023/03/11 07:13:45;;;;;;;;;;;;;;;11.62;43.98;99253.88;4919673;28;97961;-67
2023/03/11 07:16:16;;;;;;;;;;;;;;;11.64;43.84;99249.78;4919618;28;98182;-67
2023/03/11 07:18:43;;;;;;;;;;;;;;;11.67;43.99;99257.28;4921734;28;98323;-67
2023/03/11 07:21:10;;;;;;;;;;;;;;;11.70;44.05;99261.25;4905639;28;98604;-67
2023/03/11 07:23:37;;;;;;;;;;;;;;;11.70;43.86;99280.94;4902649;28;99380;-67
2023/03/11 07:26:03;;;;;;;;;;;;;;;11.72;43.75;99284.16;4902953;28;99039;-67
2023/03/11 07:28:29;;;;;;;;;;;;;;;11.75;44.06;99285.41;4904491;28;98083;-69
2023/03/11 07:30:56;;;;;;;;;;;;;;;11.77;43.84;99288.63;4905425;28;98124;-68
2023/03/11 07:33:23;;;;;;;;;;;;;;;11.89;43.81;99294.34;4905587;28;99614;-68
2023/03/11 07:35:49;;;;;;;;;;;;;;;11.90;43.76;99292.44;4906358;28;98070;-68
2023/03/11 07:38:16;;;;;;;;;;;;;;;11.89;43.87;99307.03;4932449;28;98481;-67
2023/03/11 07:40:43;;;;;;;;;;;;;;;11.91;43.95;99319.16;4906107;28;99167;-67
2023/03/11 07:43:09;;;;;;;;;;;;;;;11.91;43.86;99316.44;4902159;28;98321;-66
2023/03/11 07:45:35;;;;;;;;;;;;;;;11.93;44.13;99332.34;4920494;28;98013;-66
2023/03/11 07:48:01;;;;;;;;;;;;;;;11.92;44.02;99338.84;4902707;28;98226;-66
2023/03/11 07:50:28;;;;;;;;;;;;;;;11.91;43.87;99340.75;4934669;28;98868;-67
2023/03/11 07:52:54;;;;;;;;;;;;;;;11.93;43.80;99343.94;4914535;28;98062;-66
2023/03/11 07:55:20;;;;;;;;;;;;;;;11.95;43.89;99339.03;4904999;28;97957;-66
2023/03/11 07:57:48;;;;;;;;;;;;;;;11.98;43.95;99357.31;4904739;28;98048;-67
2023/03/11 08:00:14;;;;;;;;;;;;;;;12.01;43.83;99358.63;4916604;28;99407;-67
2023/03/11 08:02:40;;;;;;;;;;;;;;;12.03;43.78;99369.94;4906648;28;98056;-67
2023/03/11 08:05:07;;;;;;;;;;;;;;;12.08;43.71;99371.72;4899098;28;99059;-67
2023/03/11 08:07:33;;;;;;;;;;;;;;;12.13;43.72;99377.00;4916655;28;108001;-67
2023/03/11 08:09:59;;;;;;;;;;;;;;;12.16;43.89;99388.00;4922536;28;105854;-67
2023/03/11 08:12:25;;;;;;;;;;;;;;;12.18;43.78;99391.22;4902606;28;98150;-66
2023/03/11 08:14:51;;;;;;;;;;;;;;;12.22;43.46;99394.91;4887924;28;98418;-67
2023/03/11 08:17:17;;;;;;;;;;;;;;;12.27;43.79;99400.19;4898771;28;98359;-67
2023/03/11 08:19:43;;;;;;;;;;;;;;;12.33;43.63;99406.25;4901847;28;98210;-67
2023/03/11 08:22:09;;;;;;;;;;;;;;;12.45;43.47;99411.13;4884184;28;98224;-68
2023/03/11 08:24:35;;;;;;;;;;;;;;;12.53;43.53;99426.63;4901661;28;98473;-67
2023/03/11 08:27:02;;;;;;;;;;;;;;;12.56;43.81;99433.34;4887888;28;98398;-68
2023/03/11 08:29:28;;;;;;;;;;;;;;;12.53;43.82;99435.53;4910949;28;98235;-69
2023/03/11 08:31:54;;;;;;;;;;;;;;;12.55;43.39;99442.56;4906336;28;98433;-68
2023/03/11 08:34:21;;;;;;;;;;;;;;;12.56;43.58;99444.16;4894990;28;98435;-67
2023/03/11 08:36:47;;;;;;;;;;;;;;;12.55;43.61;99448.78;4919259;28;98347;-67
2023/03/11 08:39:13;;;;;;;;;;;;;;;12.57;43.65;99464.66;4898511;28;98110;-67
2023/03/11 08:41:39;;;;;;;;;;;;;;;12.64;43.49;99457.75;4898262;28;99733;-67
2023/03/11 08:44:06;;;;;;;;;;;;;;;12.78;43.53;99463.13;4885310;28;98136;-68
2023/03/11 08:46:38;;;;;;;;;;;;;;;13.04;43.37;99468.72;4889194;28;98859;-67
2023/03/11 08:49:04;;;;;;;;;;;;;;;13.51;42.30;99469.19;4899271;28;98239;-67
2023/03/11 08:51:32;;;;;;;;;;;;;;;14.23;42.10;99471.56;4898707;28;98091;-69
2023/03/11 08:53:58;;;;;;;;;;;;;;;14.34;42.10;99477.47;4902592;28;98247;-68
2023/03/11 08:56:24;;;;;;;;;;;;;;;14.50;41.99;99483.25;4888827;28;98256;-69
2023/03/11 08:58:50;;;;;;;;;;;;;;;14.48;42.18;99485.47;4884767;28;98263;-68
2023/03/11 09:01:17;;;;;;;;;;;;;;;14.80;41.91;99491.59;4902538;28;98329;-68
2023/03/11 09:03:43;;;;;;;;;;;;;;;16.22;40.71;99477.84;4903054;28;98945;-69
2023/03/11 09:06:12;;;;;;;;;;;;;;;15.84;41.56;99489.56;4883813;28;98050;-68
2023/03/11 09:08:38;;;;;;;;;;;;;;;15.60;41.89;99498.25;4899383;28;98837;-69
2023/03/11 09:11:04;;;;;;;;;;;;;;;15.42;42.38;99507.53;4898271;28;98131;-69
2023/03/11 09:13:31;;;;;;;;;;;;;;;15.37;42.35;99516.66;4918896;28;97956;-67
2023/03/11 09:15:58;;;;;;;;;;;;;;;15.36;42.48;99519.66;4908830;28;98399;-67
2023/03/11 09:18:24;;;;;;;;;;;;;;;15.29;42.67;99524.78;4952531;28;99680;-68
2023/03/11 09:20:50;;;;;;;;;;;;;;;15.06;42.67;99522.25;4920362;28;99896;-70
2023/03/11 09:23:17;;;;;;;;;;;;;;;14.94;42.96;99546.53;4919656;28;98195;-70
2023/03/11 09:25:43;;;;;;;;;;;;;;;15.08;42.88;99544.44;4921748;28;97951;-70
2023/03/11 09:28:09;;;;;;;;;;;;;;;15.04;42.64;99543.47;4928428;28;98407;-68
2023/03/11 09:30:36;;;;;;;;;;;;;;;15.06;42.92;99537.75;4921023;28;98390;-68
2023/03/11 09:33:02;;;;;;;;;;;;;;;15.17;42.52;99542.53;4911277;28;98284;-70
2023/03/11 09:35:28;;;;;;;;;;;;;;;15.38;42.44;99548.09;4935340;28;98410;-70
2023/03/11 09:37:54;;;;;;;;;;;;;;;15.31;42.71;99553.22;4932239;28;99869;-70
2023/03/11 09:40:21;;;;;;;;;;;;;;;15.53;42.68;99563.13;4938677;28;98048;-69
2023/03/11 09:42:50;;;;;;;;;;;;;;;15.37;42.77;99568.25;4953872;28;97882;-69
2023/03/11 09:45:23;;;;;;;;;;;;;;;15.36;42.40;99573.97;4936629;28;99715;-71
2023/03/11 09:48:15;;;;;;;;;;;;;;;15.25;42.64;99569.97;4930842;28;98577;-69
2023/03/11 09:50:49;;;;;;;;;;;;;;;15.40;42.55;99580.34;4912458;28;98238;-70
2023/03/11 09:53:28;;;;;;;;;;;;;;;16.10;41.83;99581.84;4917526;28;98511;-69
2023/03/11 09:56:02;;;;;;;;;;;;;;;16.58;41.34;99585.31;4922565;28;98514;-69
2023/03/11 09:58:48;;;;;;;;;;;;;;;17.01;41.17;99585.06;4917233;28;98119;-69
2023/03/11 10:01:23;;;;;;;;;;;;;;;17.03;41.40;99595.66;4938429;28;98885;-70
2023/03/11 10:03:51;;;;;;;;;;;;;;;17.19;41.34;99591.22;4906087;28;98243;-70
2023/03/11 10:06:23;;;;;;;;;;;;;;;17.46;41.38;99597.25;4918926;28;100079;-71
2023/03/11 10:09:07;;;;;;;;;;;;;;;17.59;41.32;99598.88;4937515;28;98202;-70
2023/03/11 10:11:43;;;;;;;;;;;;;;;17.28;41.70;99610.19;4935680;28;99866;-70
2023/03/11 10:14:21;;;;;;;;;;;;;;;16.94;42.20;99612.06;4946754;28;99410;-70
2023/03/11 10:16:50;;;;;;;;;;;;;;;16.73;42.45;99627.50;4936815;28;97962;-70
2023/03/11 10:19:43;;;;;;;;;;;;;;;16.60;42.51;99630.13;4947200;28;99904;-70
2023/03/11 10:22:34;;;;;;;;;;;;;;;16.22;42.84;99637.47;4913880;28;99737;-70
2023/03/11 10:25:39;;;;;;;;;;;;;;;15.98;43.01;99648.88;4918073;28;98645;-71
2023/03/11 10:28:11;;;;;;;;;;;;;;;15.90;42.70;99642.34;4943913;28;102065;-70
2023/03/11 10:30:39;;;;;;;;;;;;;;;16.26;42.49;99650.09;4935321;28;98034;-71
2023/03/11 10:33:17;;;;;;;;;;;;;;;16.60;42.19;99645.66;4925053;28;107689;-71
2023/03/11 10:35:44;;;;;;;;;;;;;;;16.68;42.21;99656.50;4934151;28;98026;-70
2023/03/11 10:38:18;;;;;;;;;;;;;;;16.65;42.09;99646.25;4917800;28;98068;-70
2023/03/11 10:40:46;;;;;;;;;;;;;;;16.60;42.41;99653.81;4922981;28;98401;-71
2023/03/11 10:43:18;;;;;;;;;;;;;;;16.56;42.30;99653.66;4937302;28;100578;-70
2023/03/11 10:45:47;;;;;;;;;;;;;;;16.46;42.46;99656.72;4942068;28;98176;-71
2023/03/11 10:48:14;;;;;;;;;;;;;;;16.47;42.46;99654.84;4905547;28;98528;-69
2023/03/11 10:51:03;;;;;;;;;;;;;;;16.44;42.51;99659.00;4909210;28;100636;-70
2023/03/11 10:53:29;;;;;;;;;;;;;;;16.64;42.36;99660.19;4927123;28;115775;-70
2023/03/11 10:55:57;;;;;;;;;;;;;;;17.17;41.67;99659.63;4927932;28;99606;-71
2023/03/11 10:58:25;;;;;;;;;;;;;;;17.36;41.55;99667.31;4926908;28;98063;-71
2023/03/11 11:01:14;;;;;;;;;;;;;;;17.12;41.91;99675.34;4938455;28;98085;-70
2023/03/11 11:03:44;;;;;;;;;;;;;;;17.10;42.11;99667.50;4922632;28;100048;-70
2023/03/11 11:06:28;;;;;;;;;;;;;;;17.15;42.07;99678.19;4956510;28;98035;-69
2023/03/11 11:09:18;;;;;;;;;;;;;;;16.77;42.68;99680.97;4909402;28;98205;-69
2023/03/11 11:12:00;;;;;;;;;;;;;;;16.48;42.97;99680.91;4952418;28;98074;-69
2023/03/11 11:14:47;;;;;;;;;;;;;;;16.29;43.01;99692.16;4935860;28;98159;-69
2023/03/11 11:17:18;;;;;;;;;;;;;;;16.08;43.15;99694.75;4923878;28;99285;-70
2023/03/11 11:19:45;;;;;;;;;;;;;;;15.99;43.06;99694.75;4910705;28;98093;-70
2023/03/11 11:22:17;;;;;;;;;;;;;;;15.98;42.91;99701.31;4903230;28;98538;-71
2023/03/11 11:24:44;;;;;;;;;;;;;;;16.00;42.85;99706.44;4925594;28;99320;-71
2023/03/11 11:27:18;;;;;;;;;;;;;;;16.48;42.47;99699.94;4920632;28;98393;-70
2023/03/11 11:29:44;;;;;;;;;;;;;;;18.95;39.67;99677.94;4920527;28;98225;-70
2023/03/11 11:32:20;;;;;;;;;;;;;;;18.44;40.66;99682.09;4909539;28;98591;-71
2023/03/11 11:34:56;;;;;;;;;;;;;;;18.29;41.11;99694.44;4923170;28;98602;-70
2023/03/11 11:37:22;;;;;;;;;;;;;;;18.07;41.64;99693.69;4899026;28;97987;-70
2023/03/11 11:39:51;;;;;;;;;;;;;;;17.79;42.16;99711.75;4923596;28;98062;-71
2023/03/11 11:42:18;;;;;;;;;;;;;;;17.49;42.33;99716.41;4903764;28;99561;-70
2023/03/11 11:44:47;;;;;;;;;;;;;;;17.21;42.56;99708.75;4907219;28;97933;-69
2023/03/11 11:47:19;;;;;;;;;;;;;;;17.04;42.89;99722.47;4933599;28;98139;-70
2023/03/11 11:50:05;;;;;;;;;;;;;;;16.93;42.90;99722.81;4923278;28;98188;-71
2023/03/11 11:52:36;;;;;;;;;;;;;;;16.84;42.85;99719.34;4948284;28;98741;-71
2023/03/11 11:55:24;;;;;;;;;;;;;;;16.90;42.63;99711.81;4935820;28;98974;-70
2023/03/11 11:57:51;;;;;;;;;;;;;;;17.01;42.48;99723.13;4949412;28;98936;-70
2023/03/11 12:00:24;;;;;;;;;;;;;;;16.81;42.77;99728.16;4923824;28;98774;-69
2023/03/11 12:03:19;;;;;;;;;;;;;;;16.81;42.51;99730.09;4935527;28;99772;-69
2023/03/11 12:05:52;;;;;;;;;;;;;;;16.81;42.44;99730.09;4948196;28;98276;-70
2023/03/11 12:08:20;;;;;;;;;;;;;;;17.08;42.33;99724.19;4922488;28;98099;-71
2023/03/11 12:11:00;;;;;;;;;;;;;;;17.00;42.45;99725.03;4934941;28;99393;-71
2023/03/11 12:13:33;;;;;;;;;;;;;;;17.00;42.39;99726.97;4930673;28;99324;-70
2023/03/11 12:16:20;;;;;;;;;;;;;;;18.32;40.95;99732.75;4926563;28;100486;-69
2023/03/11 12:18:56;;;;;;;;;;;;;;;19.01;40.62;99716.72;4952464;28;98926;-70
2023/03/11 12:21:46;;;;;;;;;;;;;;;19.47;40.42;99729.09;4922704;28;100023;-71
2023/03/11 12:24:19;;;;;;;;;;;;;;;20.05;40.07;99728.84;4924704;28;98260;-71
2023/03/11 12:26:46;;;;;;;;;;;;;;;19.71;40.83;99731.00;4933746;28;98374;-70
2023/03/11 12:29:30;;;;;;;;;;;;;;;19.31;41.48;99734.47;4920003;28;99357;-71
2023/03/11 12:31:56;;;;;;;;;;;;;;;18.89;41.99;99736.63;4909211;28;98002;-71
2023/03/11 12:34:27;;;;;;;;;;;;;;;18.57;42.21;99744.53;4911219;28;99467;-70
2023/03/11 12:37:02;;;;;;;;;;;;;;;18.21;42.46;99744.44;4940911;28;100520;-71
2023/03/11 12:39:32;;;;;;;;;;;;;;;17.86;42.94;99750.97;4908289;28;99135;-71
2023/03/11 12:42:15;;;;;;;;;;;;;;;17.58;42.89;99744.44;4907172;28;98048;-71
2023/03/11 12:44:41;;;;;;;;;;;;;;;17.28;43.21;99749.09;4923744;28;98206;-70
2023/03/11 12:47:07;;;;;;;;;;;;;;;17.23;43.11;99749.28;4921135;28;100115;-70
2023/03/11 12:49:38;;;;;;;;;;;;;;;17.16;43.10;99747.06;4939099;28;99439;-70
2023/03/11 12:52:10;;;;;;;;;;;;;;;17.11;42.85;99758.16;4923626;28;98277;-70
2023/03/11 12:54:38;;;;;;;;;;;;;;;16.95;43.06;99763.34;4935699;28;98225;-70